sensor_id;sensor_type;location;lat;lon;timestamp;pressure;altitude;pressure_sealevel;temperature;humidity
76680;BME280;65597;51.520;-0.224;2023-02-08T00:01:56;103748.22;;;7.22;34.61
76680;BME280;65597;51.520;-0.224;2023-02-08T00:04:22;103748.25;;;7.21;34.72
76680;BME280;65597;51.520;-0.224;2023-02-08T00:06:47;103757.98;;;7.27;34.52
76680;BME280;65597;51.520;-0.224;2023-02-08T00:09:13;103760.63;;;7.53;34.31
76680;BME280;65597;51.520;-0.224;2023-02-08T00:11:38;103764.11;;;7.22;34.28
76680;BME280;65597;51.520;-0.224;2023-02-08T00:14:04;103767.91;;;6.93;34.73
76680;BME280;65597;51.520;-0.224;2023-02-08T00:16:30;103771.37;;;7.32;34.45
76680;BME280;65597;51.520;-0.224;2023-02-08T00:18:55;103773.13;;;7.31;34.34
76680;BME280;65597;51.520;-0.224;2023-02-08T00:21:21;103769.60;;;7.28;34.46
76680;BME280;65597;51.520;-0.224;2023-02-08T00:23:50;103766.30;;;7.23;34.59
76680;BME280;65597;51.520;-0.224;2023-02-08T00:26:12;103767.65;;;7.24;34.69
76680;BME280;65597;51.520;-0.224;2023-02-08T00:28:37;103763.49;;;7.12;34.73
76680;BME280;65597;51.520;-0.224;2023-02-08T00:31:04;103763.62;;;6.85;34.76
76680;BME280;65597;51.520;-0.224;2023-02-08T00:33:28;103761.99;;;7.20;34.51
76680;BME280;65597;51.520;-0.224;2023-02-08T00:35:57;103760.22;;;6.96;34.30
76680;BME280;65597;51.520;-0.224;2023-02-08T00:38:19;103757.30;;;7.24;34.14
76680;BME280;65597;51.520;-0.224;2023-02-08T00:40:44;103758.65;;;7.00;34.10
76680;BME280;65597;51.520;-0.224;2023-02-08T00:43:09;103762.55;;;7.20;34.11
76680;BME280;65597;51.520;-0.224;2023-02-08T00:45:35;103754.87;;;6.87;34.36
76680;BME280;65597;51.520;-0.224;2023-02-08T00:48:01;103752.88;;;6.89;34.19
76680;BME280;65597;51.520;-0.224;2023-02-08T00:50:26;103749.22;;;7.02;34.33
76680;BME280;65597;51.520;-0.224;2023-02-08T00:52:51;103747.12;;;6.81;34.25
76680;BME280;65597;51.520;-0.224;2023-02-08T00:55:16;103749.56;;;6.91;34.55
76680;BME280;65597;51.520;-0.224;2023-02-08T00:57:41;103751.83;;;6.91;34.44
76680;BME280;65597;51.520;-0.224;2023-02-08T01:00:08;103751.68;;;6.71;34.47
76680;BME280;65597;51.520;-0.224;2023-02-08T01:02:32;103750.68;;;7.00;34.39
76680;BME280;65597;51.520;-0.224;2023-02-08T01:04:57;103749.51;;;6.74;34.35
76680;BME280;65597;51.520;-0.224;2023-02-08T01:07:23;103752.34;;;6.70;34.31
76680;BME280;65597;51.520;-0.224;2023-02-08T01:09:48;103752.63;;;6.95;34.26
76680;BME280;65597;51.520;-0.224;2023-02-08T01:12:14;103745.22;;;6.93;34.25
76680;BME280;65597;51.520;-0.224;2023-02-08T01:14:39;103743.69;;;6.93;34.26
76680;BME280;65597;51.520;-0.224;2023-02-08T01:17:04;103742.51;;;6.75;34.52
76680;BME280;65597;51.520;-0.224;2023-02-08T01:19:30;103738.59;;;6.71;34.57
76680;BME280;65597;51.520;-0.224;2023-02-08T01:21:55;103734.69;;;6.65;34.67
76680;BME280;65597;51.520;-0.224;2023-02-08T01:24:21;103734.00;;;6.65;34.55
76680;BME280;65597;51.520;-0.224;2023-02-08T01:26:45;103733.13;;;6.62;34.22
76680;BME280;65597;51.520;-0.224;2023-02-08T01:29:11;103729.51;;;6.79;34.19
76680;BME280;65597;51.520;-0.224;2023-02-08T01:31:38;103726.96;;;6.33;34.18
76680;BME280;65597;51.520;-0.224;2023-02-08T01:34:03;103718.51;;;6.52;34.31
76680;BME280;65597;51.520;-0.224;2023-02-08T01:36:28;103715.22;;;6.48;34.31
76680;BME280;65597;51.520;-0.224;2023-02-08T01:38:53;103708.69;;;6.53;34.25
76680;BME280;65597;51.520;-0.224;2023-02-08T01:41:20;103710.21;;;6.48;34.21
76680;BME280;65597;51.520;-0.224;2023-02-08T01:43:58;103712.92;;;6.49;34.01
76680;BME280;65597;51.520;-0.224;2023-02-08T01:46:09;103712.21;;;6.38;34.09
76680;BME280;65597;51.520;-0.224;2023-02-08T01:48:37;103712.10;;;6.27;34.24
76680;BME280;65597;51.520;-0.224;2023-02-08T01:51:02;103707.74;;;6.25;34.44
76680;BME280;65597;51.520;-0.224;2023-02-08T01:53:27;103707.40;;;6.50;34.25
76680;BME280;65597;51.520;-0.224;2023-02-08T01:55:53;103706.55;;;6.12;34.56
76680;BME280;65597;51.520;-0.224;2023-02-08T01:58:17;103711.50;;;6.61;34.63
76680;BME280;65597;51.520;-0.224;2023-02-08T02:00:42;103707.34;;;6.15;34.58
76680;BME280;65597;51.520;-0.224;2023-02-08T02:03:08;103705.22;;;6.66;34.56
76680;BME280;65597;51.520;-0.224;2023-02-08T02:05:38;103705.29;;;6.11;34.65
76680;BME280;65597;51.520;-0.224;2023-02-08T02:08:00;103707.61;;;6.07;34.62
76680;BME280;65597;51.520;-0.224;2023-02-08T02:10:26;103709.85;;;5.98;34.73
76680;BME280;65597;51.520;-0.224;2023-02-08T02:12:51;103708.65;;;6.26;34.85
76680;BME280;65597;51.520;-0.224;2023-02-08T02:15:15;103702.75;;;6.26;34.73
76680;BME280;65597;51.520;-0.224;2023-02-08T02:17:41;103703.61;;;6.05;34.48
76680;BME280;65597;51.520;-0.224;2023-02-08T02:20:09;103704.48;;;5.99;34.38
76680;BME280;65597;51.520;-0.224;2023-02-08T02:22:48;103702.90;;;6.46;34.39
76680;BME280;65597;51.520;-0.224;2023-02-08T02:25:20;103703.58;;;6.40;34.83
76680;BME280;65597;51.520;-0.224;2023-02-08T02:27:33;103703.59;;;6.09;34.97
76680;BME280;65597;51.520;-0.224;2023-02-08T02:29:57;103702.69;;;6.33;34.65
76680;BME280;65597;51.520;-0.224;2023-02-08T02:32:27;103699.08;;;6.31;34.70
76680;BME280;65597;51.520;-0.224;2023-02-08T02:34:44;103691.03;;;6.32;34.85
76680;BME280;65597;51.520;-0.224;2023-02-08T02:37:11;103684.04;;;6.26;34.66
76680;BME280;65597;51.520;-0.224;2023-02-08T02:39:36;103682.00;;;6.25;34.56
76680;BME280;65597;51.520;-0.224;2023-02-08T02:42:01;103670.64;;;6.15;34.45
76680;BME280;65597;51.520;-0.224;2023-02-08T02:44:24;103669.42;;;6.05;34.61
76680;BME280;65597;51.520;-0.224;2023-02-08T02:46:49;103665.16;;;5.93;34.54
76680;BME280;65597;51.520;-0.224;2023-02-08T02:49:17;103660.28;;;5.64;34.51
76680;BME280;65597;51.520;-0.224;2023-02-08T02:51:41;103654.07;;;5.70;34.57
76680;BME280;65597;51.520;-0.224;2023-02-08T02:54:06;103653.22;;;5.96;34.58
76680;BME280;65597;51.520;-0.224;2023-02-08T02:56:32;103649.73;;;6.00;34.62
76680;BME280;65597;51.520;-0.224;2023-02-08T02:58:59;103647.51;;;6.29;34.38
76680;BME280;65597;51.520;-0.224;2023-02-08T03:01:21;103648.18;;;6.01;34.28
76680;BME280;65597;51.520;-0.224;2023-02-08T03:03:44;103643.10;;;6.04;34.32
76680;BME280;65597;51.520;-0.224;2023-02-08T03:06:13;103642.17;;;5.90;34.54
76680;BME280;65597;51.520;-0.224;2023-02-08T03:08:50;103640.47;;;6.27;34.35
76680;BME280;65597;51.520;-0.224;2023-02-08T03:11:13;103636.09;;;5.95;34.44
76680;BME280;65597;51.520;-0.224;2023-02-08T03:13:34;103633.49;;;6.27;34.17
76680;BME280;65597;51.520;-0.224;2023-02-08T03:16:01;103628.76;;;5.99;34.06
76680;BME280;65597;51.520;-0.224;2023-02-08T03:18:24;103629.01;;;6.19;34.21
76680;BME280;65597;51.520;-0.224;2023-02-08T03:20:49;103629.87;;;5.95;34.25
76680;BME280;65597;51.520;-0.224;2023-02-08T03:23:16;103632.63;;;5.67;34.25
76680;BME280;65597;51.520;-0.224;2023-02-08T03:25:42;103633.86;;;5.93;34.26
76680;BME280;65597;51.520;-0.224;2023-02-08T03:28:04;103634.83;;;5.85;34.30
76680;BME280;65597;51.520;-0.224;2023-02-08T03:30:31;103630.25;;;6.08;34.26
76680;BME280;65597;51.520;-0.224;2023-02-08T03:32:54;103620.95;;;5.82;34.33
76680;BME280;65597;51.520;-0.224;2023-02-08T03:35:19;103612.69;;;5.21;35.09
76680;BME280;65597;51.520;-0.224;2023-02-08T03:37:49;103614.64;;;5.81;34.75
76680;BME280;65597;51.520;-0.224;2023-02-08T03:40:11;103616.48;;;5.89;34.52
76680;BME280;65597;51.520;-0.224;2023-02-08T03:42:34;103613.72;;;5.90;34.46
76680;BME280;65597;51.520;-0.224;2023-02-08T03:45:02;103616.62;;;5.39;34.35
76680;BME280;65597;51.520;-0.224;2023-02-08T03:47:26;103616.85;;;5.41;34.25
76680;BME280;65597;51.520;-0.224;2023-02-08T03:49:52;103617.04;;;5.90;34.22
76680;BME280;65597;51.520;-0.224;2023-02-08T03:52:15;103616.80;;;5.94;34.15
76680;BME280;65597;51.520;-0.224;2023-02-08T03:54:43;103618.31;;;5.98;34.04
76680;BME280;65597;51.520;-0.224;2023-02-08T03:57:11;103620.63;;;6.06;33.99
76680;BME280;65597;51.520;-0.224;2023-02-08T03:59:34;103620.56;;;6.11;33.92
76680;BME280;65597;51.520;-0.224;2023-02-08T04:01:59;103621.74;;;5.94;34.05
76680;BME280;65597;51.520;-0.224;2023-02-08T04:04:22;103622.95;;;5.94;33.89
76680;BME280;65597;51.520;-0.224;2023-02-08T04:06:47;103620.58;;;5.67;33.95
76680;BME280;65597;51.520;-0.224;2023-02-08T04:09:12;103619.14;;;5.78;34.11
76680;BME280;65597;51.520;-0.224;2023-02-08T04:11:38;103615.77;;;6.08;34.21
76680;BME280;65597;51.520;-0.224;2023-02-08T04:14:04;103617.79;;;5.80;34.30
76680;BME280;65597;51.520;-0.224;2023-02-08T04:16:29;103616.90;;;5.87;34.21
76680;BME280;65597;51.520;-0.224;2023-02-08T04:18:55;103614.27;;;5.82;34.73
76680;BME280;65597;51.520;-0.224;2023-02-08T04:21:21;103611.58;;;5.85;34.61
76680;BME280;65597;51.520;-0.224;2023-02-08T04:23:46;103614.46;;;5.79;34.61
76680;BME280;65597;51.520;-0.224;2023-02-08T04:26:12;103611.72;;;5.58;34.92
76680;BME280;65597;51.520;-0.224;2023-02-08T04:28:37;103611.91;;;5.61;35.16
76680;BME280;65597;51.520;-0.224;2023-02-08T04:31:03;103611.33;;;5.70;34.86
76680;BME280;65597;51.520;-0.224;2023-02-08T04:33:29;103610.76;;;5.63;34.27
76680;BME280;65597;51.520;-0.224;2023-02-08T04:35:54;103606.56;;;5.61;34.46
76680;BME280;65597;51.520;-0.224;2023-02-08T04:38:19;103605.66;;;5.48;34.48
76680;BME280;65597;51.520;-0.224;2023-02-08T04:40:44;103602.66;;;5.71;34.18
76680;BME280;65597;51.520;-0.224;2023-02-08T04:43:10;103603.14;;;5.55;34.34
76680;BME280;65597;51.520;-0.224;2023-02-08T04:45:36;103601.11;;;5.63;34.48
76680;BME280;65597;51.520;-0.224;2023-02-08T04:48:01;103600.48;;;5.57;34.50
76680;BME280;65597;51.520;-0.224;2023-02-08T04:50:28;103605.73;;;5.50;34.44
76680;BME280;65597;51.520;-0.224;2023-02-08T04:52:52;103612.12;;;5.52;34.44
76680;BME280;65597;51.520;-0.224;2023-02-08T04:55:17;103607.79;;;5.86;34.32
76680;BME280;65597;51.520;-0.224;2023-02-08T04:57:43;103602.90;;;5.67;34.29
76680;BME280;65597;51.520;-0.224;2023-02-08T05:00:09;103601.17;;;5.55;34.45
76680;BME280;65597;51.520;-0.224;2023-02-08T05:02:34;103603.56;;;5.57;34.59
76680;BME280;65597;51.520;-0.224;2023-02-08T05:04:59;103604.08;;;5.31;34.70
76680;BME280;65597;51.520;-0.224;2023-02-08T05:07:24;103602.52;;;5.69;34.35
76680;BME280;65597;51.520;-0.224;2023-02-08T05:09:50;103604.74;;;5.47;34.23
76680;BME280;65597;51.520;-0.224;2023-02-08T05:12:15;103604.11;;;5.76;34.10
76680;BME280;65597;51.520;-0.224;2023-02-08T05:14:40;103603.40;;;5.80;34.13
76680;BME280;65597;51.520;-0.224;2023-02-08T05:17:06;103603.33;;;5.52;34.23
76680;BME280;65597;51.520;-0.224;2023-02-08T05:19:32;103597.68;;;5.82;34.26
76680;BME280;65597;51.520;-0.224;2023-02-08T05:21:57;103591.42;;;5.87;34.11
76680;BME280;65597;51.520;-0.224;2023-02-08T05:24:22;103589.44;;;5.96;34.18
76680;BME280;65597;51.520;-0.224;2023-02-08T05:26:48;103588.62;;;5.75;34.50
76680;BME280;65597;51.520;-0.224;2023-02-08T05:29:13;103589.93;;;5.73;34.50
76680;BME280;65597;51.520;-0.224;2023-02-08T05:31:39;103598.36;;;5.62;34.56
76680;BME280;65597;51.520;-0.224;2023-02-08T05:34:04;103603.80;;;5.57;34.48
76680;BME280;65597;51.520;-0.224;2023-02-08T05:36:29;103608.36;;;5.66;34.22
76680;BME280;65597;51.520;-0.224;2023-02-08T05:38:56;103604.90;;;5.56;34.24
76680;BME280;65597;51.520;-0.224;2023-02-08T05:41:20;103609.17;;;5.62;34.13
76680;BME280;65597;51.520;-0.224;2023-02-08T05:43:45;103610.06;;;5.59;34.02
76680;BME280;65597;51.520;-0.224;2023-02-08T05:46:11;103609.91;;;5.42;34.29
76680;BME280;65597;51.520;-0.224;2023-02-08T05:48:36;103611.74;;;5.45;34.21
76680;BME280;65597;51.520;-0.224;2023-02-08T05:51:02;103608.80;;;5.44;34.14
76680;BME280;65597;51.520;-0.224;2023-02-08T05:53:27;103610.01;;;5.45;34.22
76680;BME280;65597;51.520;-0.224;2023-02-08T05:55:52;103616.16;;;5.68;34.26
76680;BME280;65597;51.520;-0.224;2023-02-08T05:58:18;103616.16;;;5.48;34.42
76680;BME280;65597;51.520;-0.224;2023-02-08T06:00:43;103618.94;;;5.35;34.49
76680;BME280;65597;51.520;-0.224;2023-02-08T06:03:09;103615.31;;;5.32;34.43
76680;BME280;65597;51.520;-0.224;2023-02-08T06:05:36;103610.60;;;5.31;34.38
76680;BME280;65597;51.520;-0.224;2023-02-08T06:07:59;103609.89;;;5.52;34.53
76680;BME280;65597;51.520;-0.224;2023-02-08T06:10:24;103608.47;;;5.25;34.50
76680;BME280;65597;51.520;-0.224;2023-02-08T06:12:50;103611.74;;;5.29;34.27
76680;BME280;65597;51.520;-0.224;2023-02-08T06:15:16;103605.74;;;5.34;34.11
76680;BME280;65597;51.520;-0.224;2023-02-08T06:17:41;103602.88;;;5.35;34.03
76680;BME280;65597;51.520;-0.224;2023-02-08T06:20:08;103610.32;;;5.28;34.30
76680;BME280;65597;51.520;-0.224;2023-02-08T06:22:33;103610.96;;;5.30;34.36
76680;BME280;65597;51.520;-0.224;2023-02-08T06:24:58;103611.81;;;5.24;34.15
76680;BME280;65597;51.520;-0.224;2023-02-08T06:27:24;103614.87;;;5.36;34.02
76680;BME280;65597;51.520;-0.224;2023-02-08T06:29:49;103611.58;;;5.38;34.14
76680;BME280;65597;51.520;-0.224;2023-02-08T06:32:15;103607.20;;;5.40;33.98
76680;BME280;65597;51.520;-0.224;2023-02-08T06:34:40;103601.57;;;5.25;33.86
76680;BME280;65597;51.520;-0.224;2023-02-08T06:37:06;103594.12;;;5.54;34.17
76680;BME280;65597;51.520;-0.224;2023-02-08T06:39:32;103593.56;;;5.19;34.13
76680;BME280;65597;51.520;-0.224;2023-02-08T06:41:57;103593.87;;;5.54;33.97
76680;BME280;65597;51.520;-0.224;2023-02-08T06:44:22;103593.49;;;5.28;33.86
76680;BME280;65597;51.520;-0.224;2023-02-08T06:46:47;103595.68;;;5.45;34.05
76680;BME280;65597;51.520;-0.224;2023-02-08T06:49:12;103594.38;;;5.29;34.27
76680;BME280;65597;51.520;-0.224;2023-02-08T06:51:39;103592.48;;;5.23;34.34
76680;BME280;65597;51.520;-0.224;2023-02-08T06:54:03;103591.66;;;5.21;34.26
76680;BME280;65597;51.520;-0.224;2023-02-08T06:56:28;103589.67;;;5.35;34.47
76680;BME280;65597;51.520;-0.224;2023-02-08T06:58:55;103594.29;;;5.34;34.63
76680;BME280;65597;51.520;-0.224;2023-02-08T07:01:18;103594.13;;;5.36;34.82
76680;BME280;65597;51.520;-0.224;2023-02-08T07:03:45;103594.13;;;5.10;34.64
76680;BME280;65597;51.520;-0.224;2023-02-08T07:06:12;103594.27;;;5.13;34.64
76680;BME280;65597;51.520;-0.224;2023-02-08T07:08:35;103591.47;;;5.40;34.37
76680;BME280;65597;51.520;-0.224;2023-02-08T07:11:05;103591.94;;;5.32;34.52
76680;BME280;65597;51.520;-0.224;2023-02-08T07:13:26;103592.95;;;5.15;41.03
76680;BME280;65597;51.520;-0.224;2023-02-08T07:15:51;103588.72;;;5.15;35.08
76680;BME280;65597;51.520;-0.224;2023-02-08T07:18:17;103589.27;;;5.16;34.26
76680;BME280;65597;51.520;-0.224;2023-02-08T07:20:42;103591.15;;;5.17;34.29
76680;BME280;65597;51.520;-0.224;2023-02-08T07:23:08;103595.39;;;5.30;34.22
76680;BME280;65597;51.520;-0.224;2023-02-08T07:25:33;103594.40;;;5.10;34.21
76680;BME280;65597;51.520;-0.224;2023-02-08T07:27:59;103592.58;;;5.23;34.16
76680;BME280;65597;51.520;-0.224;2023-02-08T07:30:24;103589.37;;;5.53;34.27
76680;BME280;65597;51.520;-0.224;2023-02-08T07:32:50;103590.59;;;5.24;34.40
76680;BME280;65597;51.520;-0.224;2023-02-08T07:35:16;103590.18;;;5.19;34.20
76680;BME280;65597;51.520;-0.224;2023-02-08T07:37:41;103586.77;;;5.63;34.02
76680;BME280;65597;51.520;-0.224;2023-02-08T07:40:09;103585.15;;;5.39;33.74
76680;BME280;65597;51.520;-0.224;2023-02-08T07:42:32;103582.10;;;5.07;33.75
76680;BME280;65597;51.520;-0.224;2023-02-08T07:44:57;103583.13;;;5.10;33.75
76680;BME280;65597;51.520;-0.224;2023-02-08T07:47:22;103581.13;;;5.26;33.99
76680;BME280;65597;51.520;-0.224;2023-02-08T07:49:48;103580.31;;;5.07;40.14
76680;BME280;65597;51.520;-0.224;2023-02-08T07:52:16;103581.56;;;4.99;34.88
76680;BME280;65597;51.520;-0.224;2023-02-08T07:54:39;103579.20;;;4.99;34.50
76680;BME280;65597;51.520;-0.224;2023-02-08T07:57:05;103581.56;;;5.19;34.43
76680;BME280;65597;51.520;-0.224;2023-02-08T07:59:30;103584.10;;;4.94;34.42
76680;BME280;65597;51.520;-0.224;2023-02-08T08:01:55;103585.30;;;4.51;36.13
76680;BME280;65597;51.520;-0.224;2023-02-08T08:04:21;103588.40;;;4.42;36.79
76680;BME280;65597;51.520;-0.224;2023-02-08T08:06:46;103593.39;;;4.67;36.32
76680;BME280;65597;51.520;-0.224;2023-02-08T08:09:12;103590.24;;;4.75;36.21
76680;BME280;65597;51.520;-0.224;2023-02-08T08:11:37;103590.47;;;4.88;36.48
76680;BME280;65597;51.520;-0.224;2023-02-08T08:14:02;103584.72;;;4.55;36.28
76680;BME280;65597;51.520;-0.224;2023-02-08T08:16:28;103579.36;;;4.96;36.01
76680;BME280;65597;51.520;-0.224;2023-02-08T08:18:54;103577.70;;;5.02;35.92
76680;BME280;65597;51.520;-0.224;2023-02-08T08:21:19;103578.19;;;4.79;36.46
76680;BME280;65597;51.520;-0.224;2023-02-08T08:23:45;103573.65;;;4.85;36.06
76680;BME280;65597;51.520;-0.224;2023-02-08T08:26:12;103571.56;;;5.02;35.86
76680;BME280;65597;51.520;-0.224;2023-02-08T08:28:36;103572.28;;;4.97;35.97
76680;BME280;65597;51.520;-0.224;2023-02-08T08:31:01;103575.53;;;5.51;35.90
76680;BME280;65597;51.520;-0.224;2023-02-08T08:33:26;103581.91;;;5.06;35.90
76680;BME280;65597;51.520;-0.224;2023-02-08T08:35:52;103587.49;;;5.06;36.59
76680;BME280;65597;51.520;-0.224;2023-02-08T08:38:17;103587.56;;;4.83;36.78
76680;BME280;65597;51.520;-0.224;2023-02-08T08:40:43;103582.23;;;5.13;36.43
76680;BME280;65597;51.520;-0.224;2023-02-08T08:43:07;103579.58;;;5.27;36.22
76680;BME280;65597;51.520;-0.224;2023-02-08T08:45:33;103577.62;;;5.20;36.09
76680;BME280;65597;51.520;-0.224;2023-02-08T08:47:58;103575.21;;;4.99;36.06
76680;BME280;65597;51.520;-0.224;2023-02-08T08:50:23;103571.96;;;5.39;35.94
76680;BME280;65597;51.520;-0.224;2023-02-08T08:52:49;103575.57;;;5.47;35.87
76680;BME280;65597;51.520;-0.224;2023-02-08T08:55:14;103575.82;;;5.22;35.87
76680;BME280;65597;51.520;-0.224;2023-02-08T08:57:40;103574.09;;;5.38;35.83
76680;BME280;65597;51.520;-0.224;2023-02-08T09:00:06;103575.61;;;5.13;37.18
76680;BME280;65597;51.520;-0.224;2023-02-08T09:02:31;103572.36;;;5.24;36.32
76680;BME280;65597;51.520;-0.224;2023-02-08T09:04:56;103569.19;;;5.33;36.25
76680;BME280;65597;51.520;-0.224;2023-02-08T09:07:22;103572.24;;;5.28;36.34
76680;BME280;65597;51.520;-0.224;2023-02-08T09:09:48;103574.22;;;5.43;36.29
76680;BME280;65597;51.520;-0.224;2023-02-08T09:12:14;103570.97;;;5.55;36.14
76680;BME280;65597;51.520;-0.224;2023-02-08T09:14:39;103568.83;;;5.73;36.00
76680;BME280;65597;51.520;-0.224;2023-02-08T09:17:06;103568.28;;;5.67;36.16
76680;BME280;65597;51.520;-0.224;2023-02-08T09:19:30;103568.33;;;5.83;35.99
76680;BME280;65597;51.520;-0.224;2023-02-08T09:21:55;103566.22;;;5.89;35.90
76680;BME280;65597;51.520;-0.224;2023-02-08T09:24:21;103565.93;;;5.95;35.90
76680;BME280;65597;51.520;-0.224;2023-02-08T09:26:47;103563.05;;;5.79;35.82
76680;BME280;65597;51.520;-0.224;2023-02-08T09:29:12;103561.16;;;5.62;35.86
76680;BME280;65597;51.520;-0.224;2023-02-08T09:31:38;103555.10;;;5.53;36.46
76680;BME280;65597;51.520;-0.224;2023-02-08T09:34:04;103551.30;;;5.62;36.71
76680;BME280;65597;51.520;-0.224;2023-02-08T09:36:31;103549.78;;;5.87;36.51
76680;BME280;65597;51.520;-0.224;2023-02-08T09:38:54;103544.19;;;6.07;36.22
76680;BME280;65597;51.520;-0.224;2023-02-08T09:41:31;103544.01;;;6.02;36.10
76680;BME280;65597;51.520;-0.224;2023-02-08T09:43:52;103543.51;;;6.14;36.01
76680;BME280;65597;51.520;-0.224;2023-02-08T09:46:14;103548.01;;;5.95;36.18
76680;BME280;65597;51.520;-0.224;2023-02-08T09:48:37;103551.08;;;6.22;36.08
76680;BME280;65597;51.520;-0.224;2023-02-08T09:51:07;103559.89;;;5.94;36.22
76680;BME280;65597;51.520;-0.224;2023-02-08T09:53:31;103563.29;;;5.97;36.06
76680;BME280;65597;51.520;-0.224;2023-02-08T09:55:55;103563.40;;;6.22;36.02
76680;BME280;65597;51.520;-0.224;2023-02-08T09:58:23;103558.20;;;6.08;35.85
76680;BME280;65597;51.520;-0.224;2023-02-08T10:00:46;103561.44;;;6.11;35.90
76680;BME280;65597;51.520;-0.224;2023-02-08T10:03:18;103565.58;;;6.19;35.84
76680;BME280;65597;51.520;-0.224;2023-02-08T10:05:35;103567.58;;;6.30;35.98
76680;BME280;65597;51.520;-0.224;2023-02-08T10:08:00;103566.15;;;6.39;35.90
76680;BME280;65597;51.520;-0.224;2023-02-08T10:10:34;103567.47;;;6.37;35.99
76680;BME280;65597;51.520;-0.224;2023-02-08T10:12:55;103564.99;;;6.25;35.76
76680;BME280;65597;51.520;-0.224;2023-02-08T10:15:27;103565.01;;;6.52;35.86
76680;BME280;65597;51.520;-0.224;2023-02-08T10:17:55;103563.03;;;6.52;36.16
76680;BME280;65597;51.520;-0.224;2023-02-08T10:20:17;103562.71;;;6.57;36.21
76680;BME280;65597;51.520;-0.224;2023-02-08T10:22:38;103559.40;;;6.56;36.05
76680;BME280;65597;51.520;-0.224;2023-02-08T10:25:07;103558.58;;;6.63;36.10
76680;BME280;65597;51.520;-0.224;2023-02-08T10:27:29;103560.81;;;6.67;35.97
76680;BME280;65597;51.520;-0.224;2023-02-08T10:30:00;103563.58;;;6.54;36.21
76680;BME280;65597;51.520;-0.224;2023-02-08T10:32:26;103565.25;;;6.60;35.99
76680;BME280;65597;51.520;-0.224;2023-02-08T10:34:43;103557.63;;;6.75;35.69
76680;BME280;65597;51.520;-0.224;2023-02-08T10:37:12;103556.98;;;6.79;35.82
76680;BME280;65597;51.520;-0.224;2023-02-08T10:39:32;103552.27;;;6.71;35.57
76680;BME280;65597;51.520;-0.224;2023-02-08T10:41:58;103551.80;;;6.98;35.16
76680;BME280;65597;51.520;-0.224;2023-02-08T10:44:25;103549.77;;;6.94;35.64
76680;BME280;65597;51.520;-0.224;2023-02-08T10:46:50;103547.93;;;6.93;35.57
76680;BME280;65597;51.520;-0.224;2023-02-08T10:49:17;103550.47;;;6.78;35.94
76680;BME280;65597;51.520;-0.224;2023-02-08T10:51:37;103540.24;;;7.01;35.55
76680;BME280;65597;51.520;-0.224;2023-02-08T10:54:04;103540.02;;;6.99;35.20
76680;BME280;65597;51.520;-0.224;2023-02-08T10:56:37;103539.28;;;6.74;34.86
76680;BME280;65597;51.520;-0.224;2023-02-08T10:58:55;103538.89;;;7.37;34.32
76680;BME280;65597;51.520;-0.224;2023-02-08T11:01:19;103536.61;;;7.06;35.05
76680;BME280;65597;51.520;-0.224;2023-02-08T11:11:05;103531.09;;;7.45;34.92
76680;BME280;65597;51.520;-0.224;2023-02-08T11:13:32;103524.48;;;7.30;34.37
76680;BME280;65597;51.520;-0.224;2023-02-08T11:15:55;103518.86;;;7.07;34.25
76680;BME280;65597;51.520;-0.224;2023-02-08T11:18:22;103517.44;;;6.81;34.32
76680;BME280;65597;51.520;-0.224;2023-02-08T11:20:47;103512.71;;;7.11;33.92
76680;BME280;65597;51.520;-0.224;2023-02-08T11:23:17;103512.36;;;7.09;33.91
76680;BME280;65597;51.520;-0.224;2023-02-08T11:25:37;103511.68;;;7.02;34.50
76680;BME280;65597;51.520;-0.224;2023-02-08T11:27:59;103507.94;;;7.01;33.98
76680;BME280;65597;51.520;-0.224;2023-02-08T11:30:25;103508.91;;;7.19;33.74
76680;BME280;65597;51.520;-0.224;2023-02-08T11:35:20;103511.12;;;7.18;33.99
76680;BME280;65597;51.520;-0.224;2023-02-08T11:37:45;103508.91;;;7.11;34.25
76680;BME280;65597;51.520;-0.224;2023-02-08T11:40:14;103501.75;;;7.47;33.48
76680;BME280;65597;51.520;-0.224;2023-02-08T11:42:39;103499.06;;;7.63;33.49
76680;BME280;65597;51.520;-0.224;2023-02-08T11:44:58;103497.22;;;7.83;32.96
76680;BME280;65597;51.520;-0.224;2023-02-08T11:47:24;103497.73;;;7.32;32.79
76680;BME280;65597;51.520;-0.224;2023-02-08T11:49:51;103496.91;;;7.96;31.67
76680;BME280;65597;51.520;-0.224;2023-02-08T11:52:19;103497.33;;;7.47;31.31
76680;BME280;65597;51.520;-0.224;2023-02-08T11:54:41;103488.91;;;7.48;31.58
76680;BME280;65597;51.520;-0.224;2023-02-08T11:57:11;103485.81;;;7.38;32.40
76680;BME280;65597;51.520;-0.224;2023-02-08T11:59:30;103474.38;;;7.63;32.21
76680;BME280;65597;51.520;-0.224;2023-02-08T12:01:55;103466.99;;;7.76;32.25
76680;BME280;65597;51.520;-0.224;2023-02-08T12:04:20;103469.84;;;7.65;31.44
76680;BME280;65597;51.520;-0.224;2023-02-08T12:07:08;103466.11;;;7.78;30.35
76680;BME280;65597;51.520;-0.224;2023-02-08T12:09:20;103456.19;;;8.08;30.15
76680;BME280;65597;51.520;-0.224;2023-02-08T12:11:40;103451.08;;;7.73;30.17
76680;BME280;65597;51.520;-0.224;2023-02-08T12:14:15;103443.56;;;7.84;30.46
76680;BME280;65597;51.520;-0.224;2023-02-08T12:16:42;103438.06;;;7.76;30.09
76680;BME280;65597;51.520;-0.224;2023-02-08T12:19:01;103434.86;;;7.84;28.89
76680;BME280;65597;51.520;-0.224;2023-02-08T12:21:20;103430.25;;;7.82;29.44
76680;BME280;65597;51.520;-0.224;2023-02-08T12:23:50;103421.90;;;7.81;29.10
76680;BME280;65597;51.520;-0.224;2023-02-08T12:26:16;103414.55;;;8.02;29.23
76680;BME280;65597;51.520;-0.224;2023-02-08T12:28:45;103415.27;;;8.03;29.35
76680;BME280;65597;51.520;-0.224;2023-02-08T12:31:05;103411.70;;;8.37;29.22
76680;BME280;65597;51.520;-0.224;2023-02-08T12:33:37;103409.56;;;8.15;28.29
76680;BME280;65597;51.520;-0.224;2023-02-08T12:36:00;103403.58;;;8.46;28.65
76680;BME280;65597;51.520;-0.224;2023-02-08T12:38:25;103396.77;;;8.70;28.49
76680;BME280;65597;51.520;-0.224;2023-02-08T12:40:49;103389.47;;;8.61;27.57
76680;BME280;65597;51.520;-0.224;2023-02-08T12:43:15;103382.40;;;8.63;27.08
76680;BME280;65597;51.520;-0.224;2023-02-08T12:45:43;103379.02;;;9.01;27.29
76680;BME280;65597;51.520;-0.224;2023-02-08T12:48:06;103377.40;;;9.10;27.62
76680;BME280;65597;51.520;-0.224;2023-02-08T12:50:32;103367.94;;;8.08;28.72